sensor_id;sensor_type;location;lat;lon;timestamp;temperature;humidity
37938;DHT22;23763;48.130;11.602;2023-05-10T00:00:38;14.40;99.90
37938;DHT22;23763;48.130;11.602;2023-05-10T00:03:04;14.60;99.90
37938;DHT22;23763;48.130;11.602;2023-05-10T00:05:31;14.50;99.90
37938;DHT22;23763;48.130;11.602;2023-05-10T00:07:56;14.50;99.90
37938;DHT22;23763;48.130;11.602;2023-05-10T00:10:22;14.40;99.90
37938;DHT22;23763;48.130;11.602;2023-05-10T00:12:47;14.40;99.90
37938;DHT22;23763;48.130;11.602;2023-05-10T00:15:13;14.40;99.90
37938;DHT22;23763;48.130;11.602;2023-05-10T00:17:39;14.30;99.90
37938;DHT22;23763;48.130;11.602;2023-05-10T00:20:05;14.40;99.90
37938;DHT22;23763;48.130;11.602;2023-05-10T00:22:31;14.40;99.90
37938;DHT22;23763;48.130;11.602;2023-05-10T00:24:57;14.40;99.90
37938;DHT22;23763;48.130;11.602;2023-05-10T00:27:23;14.40;99.90
37938;DHT22;23763;48.130;11.602;2023-05-10T00:29:49;14.30;99.90
37938;DHT22;23763;48.130;11.602;2023-05-10T00:32:14;14.20;99.90
37938;DHT22;23763;48.130;11.602;2023-05-10T00:34:40;14.30;99.90
37938;DHT22;23763;48.130;11.602;2023-05-10T00:37:06;14.20;99.90
37938;DHT22;23763;48.130;11.602;2023-05-10T00:39:31;14.20;99.90
37938;DHT22;23763;48.130;11.602;2023-05-10T00:41:57;14.30;99.90
37938;DHT22;23763;48.130;11.602;2023-05-10T00:44:22;14.20;99.90
37938;DHT22;23763;48.130;11.602;2023-05-10T00:46:48;14.30;99.90
37938;DHT22;23763;48.130;11.602;2023-05-10T00:49:15;14.30;99.90
37938;DHT22;23763;48.130;11.602;2023-05-10T00:51:41;14.30;99.90
37938;DHT22;23763;48.130;11.602;2023-05-10T00:54:09;14.20;99.90
37938;DHT22;23763;48.130;11.602;2023-05-10T00:56:36;14.20;99.90
37938;DHT22;23763;48.130;11.602;2023-05-10T00:59:02;14.20;99.90
37938;DHT22;23763;48.130;11.602;2023-05-10T01:01:28;14.20;99.90
37938;DHT22;23763;48.130;11.602;2023-05-10T01:03:55;14.10;99.90
37938;DHT22;23763;48.130;11.602;2023-05-10T01:06:21;14.20;99.90
37938;DHT22;23763;48.130;11.602;2023-05-10T01:08:46;14.20;99.90
37938;DHT22;23763;48.130;11.602;2023-05-10T01:11:13;14.10;99.90
37938;DHT22;23763;48.130;11.602;2023-05-10T01:13:40;14.10;99.90
37938;DHT22;23763;48.130;11.602;2023-05-10T01:16:06;14.20;99.90
37938;DHT22;23763;48.130;11.602;2023-05-10T01:18:39;14.10;99.90
37938;DHT22;23763;48.130;11.602;2023-05-10T01:21:47;14.20;99.90
37938;DHT22;23763;48.130;11.602;2023-05-10T01:46:38;14.00;99.90
37938;DHT22;23763;48.130;11.602;2023-05-10T01:49:18;14.00;99.90
37938;DHT22;23763;48.130;11.602;2023-05-10T01:51:48;14.00;99.90
37938;DHT22;23763;48.130;11.602;2023-05-10T01:54:19;14.00;99.90
37938;DHT22;23763;48.130;11.602;2023-05-10T01:56:48;14.00;99.90
37938;DHT22;23763;48.130;11.602;2023-05-10T01:59:17;13.90;99.90
37938;DHT22;23763;48.130;11.602;2023-05-10T02:01:45;13.90;99.90
37938;DHT22;23763;48.130;11.602;2023-05-10T02:04:15;14.00;99.90
37938;DHT22;23763;48.130;11.602;2023-05-10T02:06:43;14.00;99.90
37938;DHT22;23763;48.130;11.602;2023-05-10T02:09:10;13.90;99.90
37938;DHT22;23763;48.130;11.602;2023-05-10T02:11:43;14.00;99.90
37938;DHT22;23763;48.130;11.602;2023-05-10T02:14:10;13.90;99.90
37938;DHT22;23763;48.130;11.602;2023-05-10T02:16:38;13.90;99.90
37938;DHT22;23763;48.130;11.602;2023-05-10T02:19:05;13.90;99.90
37938;DHT22;23763;48.130;11.602;2023-05-10T02:21:32;13.80;99.90
37938;DHT22;23763;48.130;11.602;2023-05-10T02:23:59;13.80;99.90
37938;DHT22;23763;48.130;11.602;2023-05-10T02:26:26;13.80;99.90
37938;DHT22;23763;48.130;11.602;2023-05-10T02:28:53;13.80;99.90
37938;DHT22;23763;48.130;11.602;2023-05-10T02:31:20;13.90;99.90
37938;DHT22;23763;48.130;11.602;2023-05-10T02:33:48;13.90;99.90
37938;DHT22;23763;48.130;11.602;2023-05-10T02:36:15;13.90;99.90
37938;DHT22;23763;48.130;11.602;2023-05-10T02:38:41;13.90;99.90
37938;DHT22;23763;48.130;11.602;2023-05-10T02:41:09;13.90;99.90
37938;DHT22;23763;48.130;11.602;2023-05-10T02:43:36;13.90;99.90
37938;DHT22;23763;48.130;11.602;2023-05-10T02:46:03;13.80;99.90
37938;DHT22;23763;48.130;11.602;2023-05-10T02:48:29;13.90;99.90
37938;DHT22;23763;48.130;11.602;2023-05-10T02:50:57;14.00;99.90
37938;DHT22;23763;48.130;11.602;2023-05-10T02:53:31;13.90;99.90
37938;DHT22;23763;48.130;11.602;2023-05-10T02:56:00;13.90;99.90
37938;DHT22;23763;48.130;11.602;2023-05-10T02:58:27;14.00;99.90
37938;DHT22;23763;48.130;11.602;2023-05-10T03:00:52;13.90;99.90
37938;DHT22;23763;48.130;11.602;2023-05-10T03:03:19;14.00;99.90
37938;DHT22;23763;48.130;11.602;2023-05-10T03:05:45;14.00;99.90
37938;DHT22;23763;48.130;11.602;2023-05-10T03:08:11;14.00;99.90
37938;DHT22;23763;48.130;11.602;2023-05-10T03:10:45;13.90;99.90
37938;DHT22;23763;48.130;11.602;2023-05-10T03:16:12;14.00;99.90
37938;DHT22;23763;48.130;11.602;2023-05-10T03:19:01;14.00;99.90
37938;DHT22;23763;48.130;11.602;2023-05-10T03:21:31;14.00;99.90
37938;DHT22;23763;48.130;11.602;2023-05-10T03:24:06;14.10;99.90
37938;DHT22;23763;48.130;11.602;2023-05-10T03:26:33;14.00;99.90
37938;DHT22;23763;48.130;11.602;2023-05-10T03:28:59;14.00;99.90
37938;DHT22;23763;48.130;11.602;2023-05-10T03:31:26;14.00;99.90
37938;DHT22;23763;48.130;11.602;2023-05-10T03:33:52;14.00;99.90
37938;DHT22;23763;48.130;11.602;2023-05-10T03:36:18;14.00;99.90
37938;DHT22;23763;48.130;11.602;2023-05-10T03:38:44;14.00;99.90
37938;DHT22;23763;48.130;11.602;2023-05-10T03:41:10;14.00;99.90
37938;DHT22;23763;48.130;11.602;2023-05-10T03:43:36;14.00;99.90
37938;DHT22;23763;48.130;11.602;2023-05-10T03:46:05;14.10;99.90
37938;DHT22;23763;48.130;11.602;2023-05-10T03:48:32;14.10;99.90
37938;DHT22;23763;48.130;11.602;2023-05-10T03:50:58;14.10;99.90
37938;DHT22;23763;48.130;11.602;2023-05-10T03:53:24;14.10;99.90
37938;DHT22;23763;48.130;11.602;2023-05-10T03:55:50;14.10;99.90
37938;DHT22;23763;48.130;11.602;2023-05-10T03:58:15;14.00;99.90
37938;DHT22;23763;48.130;11.602;2023-05-10T04:00:41;14.00;99.90
37938;DHT22;23763;48.130;11.602;2023-05-10T04:03:10;14.00;99.90
37938;DHT22;23763;48.130;11.602;2023-05-10T04:05:36;13.90;99.90
37938;DHT22;23763;48.130;11.602;2023-05-10T04:08:02;14.00;99.90
37938;DHT22;23763;48.130;11.602;2023-05-10T04:10:28;14.00;99.90
37938;DHT22;23763;48.130;11.602;2023-05-10T04:12:53;13.90;99.90
37938;DHT22;23763;48.130;11.602;2023-05-10T04:15:19;14.10;99.90
37938;DHT22;23763;48.130;11.602;2023-05-10T04:17:45;14.00;99.90
37938;DHT22;23763;48.130;11.602;2023-05-10T04:20:11;14.10;99.90
37938;DHT22;23763;48.130;11.602;2023-05-10T04:22:37;14.10;99.90
37938;DHT22;23763;48.130;11.602;2023-05-10T04:25:03;14.20;99.90
37938;DHT22;23763;48.130;11.602;2023-05-10T04:27:28;14.20;99.90
37938;DHT22;23763;48.130;11.602;2023-05-10T04:29:54;14.10;99.90
37938;DHT22;23763;48.130;11.602;2023-05-10T04:32:19;14.10;99.90
37938;DHT22;23763;48.130;11.602;2023-05-10T04:34:45;14.00;99.90
37938;DHT22;23763;48.130;11.602;2023-05-10T04:37:11;14.00;99.90
37938;DHT22;23763;48.130;11.602;2023-05-10T04:39:37;14.00;99.90
37938;DHT22;23763;48.130;11.602;2023-05-10T04:42:03;14.00;99.90
37938;DHT22;23763;48.130;11.602;2023-05-10T04:44:29;14.00;99.90
37938;DHT22;23763;48.130;11.602;2023-05-10T04:46:54;14.00;99.90
37938;DHT22;23763;48.130;11.602;2023-05-10T04:49:20;14.10;99.90
37938;DHT22;23763;48.130;11.602;2023-05-10T04:51:46;14.10;99.90
37938;DHT22;23763;48.130;11.602;2023-05-10T04:54:11;14.10;99.90
37938;DHT22;23763;48.130;11.602;2023-05-10T04:56:37;14.10;99.90
37938;DHT22;23763;48.130;11.602;2023-05-10T04:59:03;14.10;99.90
37938;DHT22;23763;48.130;11.602;2023-05-10T05:01:28;14.10;99.90
37938;DHT22;23763;48.130;11.602;2023-05-10T05:03:54;14.10;99.90
37938;DHT22;23763;48.130;11.602;2023-05-10T05:06:19;14.10;99.90
37938;DHT22;23763;48.130;11.602;2023-05-10T05:08:46;14.00;99.90
37938;DHT22;23763;48.130;11.602;2023-05-10T05:11:12;14.00;99.90
37938;DHT22;23763;48.130;11.602;2023-05-10T05:13:37;13.90;99.90
37938;DHT22;23763;48.130;11.602;2023-05-10T05:16:03;13.90;99.90
37938;DHT22;23763;48.130;11.602;2023-05-10T05:18:29;13.80;99.90
37938;DHT22;23763;48.130;11.602;2023-05-10T05:20:54;13.80;99.90
37938;DHT22;23763;48.130;11.602;2023-05-10T05:23:21;13.70;99.90
37938;DHT22;23763;48.130;11.602;2023-05-10T05:25:53;13.70;99.90
37938;DHT22;23763;48.130;11.602;2023-05-10T05:28:27;13.70;99.90
37938;DHT22;23763;48.130;11.602;2023-05-10T05:30:58;13.60;99.90
37938;DHT22;23763;48.130;11.602;2023-05-10T05:33:23;13.60;99.90
37938;DHT22;23763;48.130;11.602;2023-05-10T05:35:49;13.60;99.90
37938;DHT22;23763;48.130;11.602;2023-05-10T05:38:16;13.60;99.90
37938;DHT22;23763;48.130;11.602;2023-05-10T05:40:42;13.60;99.90
37938;DHT22;23763;48.130;11.602;2023-05-10T05:43:08;13.50;99.90
37938;DHT22;23763;48.130;11.602;2023-05-10T05:45:33;13.40;99.90
37938;DHT22;23763;48.130;11.602;2023-05-10T05:47:59;13.20;99.90
37938;DHT22;23763;48.130;11.602;2023-05-10T05:50:24;13.10;99.90
37938;DHT22;23763;48.130;11.602;2023-05-10T05:52:50;13.10;99.90
37938;DHT22;23763;48.130;11.602;2023-05-10T05:55:16;12.90;99.90
37938;DHT22;23763;48.130;11.602;2023-05-10T05:57:42;12.80;99.90
37938;DHT22;23763;48.130;11.602;2023-05-10T06:00:07;12.80;99.90
37938;DHT22;23763;48.130;11.602;2023-05-10T06:02:33;12.90;99.90
37938;DHT22;23763;48.130;11.602;2023-05-10T06:04:59;12.90;99.90
37938;DHT22;23763;48.130;11.602;2023-05-10T06:07:24;13.00;99.90
37938;DHT22;23763;48.130;11.602;2023-05-10T06:09:50;13.00;99.90
37938;DHT22;23763;48.130;11.602;2023-05-10T06:12:16;13.10;99.90
37938;DHT22;23763;48.130;11.602;2023-05-10T06:14:42;13.10;99.90
37938;DHT22;23763;48.130;11.602;2023-05-10T06:17:07;13.30;99.90
37938;DHT22;23763;48.130;11.602;2023-05-10T06:19:33;13.30;99.90
37938;DHT22;23763;48.130;11.602;2023-05-10T06:21:58;13.40;99.90
37938;DHT22;23763;48.130;11.602;2023-05-10T06:24:24;13.60;99.90
37938;DHT22;23763;48.130;11.602;2023-05-10T06:26:50;13.70;99.90
37938;DHT22;23763;48.130;11.602;2023-05-10T06:29:15;13.70;99.90
37938;DHT22;23763;48.130;11.602;2023-05-10T06:31:41;13.70;99.90
37938;DHT22;23763;48.130;11.602;2023-05-10T06:34:06;13.80;99.90
37938;DHT22;23763;48.130;11.602;2023-05-10T06:36:33;13.80;99.90
37938;DHT22;23763;48.130;11.602;2023-05-10T06:38:59;13.80;99.90
37938;DHT22;23763;48.130;11.602;2023-05-10T06:41:25;13.80;99.90
37938;DHT22;23763;48.130;11.602;2023-05-10T06:43:50;13.80;99.90
37938;DHT22;23763;48.130;11.602;2023-05-10T06:46:16;13.80;99.90
37938;DHT22;23763;48.130;11.602;2023-05-10T06:48:41;13.90;99.90
37938;DHT22;23763;48.130;11.602;2023-05-10T06:51:07;13.90;99.90
37938;DHT22;23763;48.130;11.602;2023-05-10T06:53:33;14.00;99.90
37938;DHT22;23763;48.130;11.602;2023-05-10T06:55:58;14.40;99.90
37938;DHT22;23763;48.130;11.602;2023-05-10T06:58:24;14.80;99.90
37938;DHT22;23763;48.130;11.602;2023-05-10T07:00:50;14.90;99.90
37938;DHT22;23763;48.130;11.602;2023-05-10T07:03:15;14.90;99.90
37938;DHT22;23763;48.130;11.602;2023-05-10T07:05:41;15.00;99.90
37938;DHT22;23763;48.130;11.602;2023-05-10T07:08:06;15.00;99.90
37938;DHT22;23763;48.130;11.602;2023-05-10T07:10:32;15.00;99.90
37938;DHT22;23763;48.130;11.602;2023-05-10T07:12:58;14.90;99.90
37938;DHT22;23763;48.130;11.602;2023-05-10T07:15:24;14.70;99.90
37938;DHT22;23763;48.130;11.602;2023-05-10T07:17:49;14.60;99.90
37938;DHT22;23763;48.130;11.602;2023-05-10T07:20:18;14.50;99.90
37938;DHT22;23763;48.130;11.602;2023-05-10T07:22:44;14.50;99.90
37938;DHT22;23763;48.130;11.602;2023-05-10T07:25:10;14.40;99.90
37938;DHT22;23763;48.130;11.602;2023-05-10T07:27:36;14.60;99.90
37938;DHT22;23763;48.130;11.602;2023-05-10T07:30:01;15.10;99.90
37938;DHT22;23763;48.130;11.602;2023-05-10T07:32:27;15.70;99.90
37938;DHT22;23763;48.130;11.602;2023-05-10T07:34:53;16.20;99.90
37938;DHT22;23763;48.130;11.602;2023-05-10T07:37:19;16.60;99.90
37938;DHT22;23763;48.130;11.602;2023-05-10T07:39:44;16.70;99.90
37938;DHT22;23763;48.130;11.602;2023-05-10T07:42:10;16.70;99.90
37938;DHT22;23763;48.130;11.602;2023-05-10T07:44:36;16.50;99.90
37938;DHT22;23763;48.130;11.602;2023-05-10T07:47:01;16.30;99.90
37938;DHT22;23763;48.130;11.602;2023-05-10T07:49:27;16.00;99.90
37938;DHT22;23763;48.130;11.602;2023-05-10T07:51:52;15.90;99.90
37938;DHT22;23763;48.130;11.602;2023-05-10T07:54:18;16.00;99.90
37938;DHT22;23763;48.130;11.602;2023-05-10T07:56:44;16.70;99.90
37938;DHT22;23763;48.130;11.602;2023-05-10T07:59:18;17.80;99.90
37938;DHT22;23763;48.130;11.602;2023-05-10T08:01:44;18.90;99.90
37938;DHT22;23763;48.130;11.602;2023-05-10T08:04:09;19.70;99.90
37938;DHT22;23763;48.130;11.602;2023-05-10T08:06:35;20.50;99.90
37938;DHT22;23763;48.130;11.602;2023-05-10T08:09:01;21.50;99.90
37938;DHT22;23763;48.130;11.602;2023-05-10T08:11:26;22.50;99.90
37938;DHT22;23763;48.130;11.602;2023-05-10T08:13:55;23.30;99.90
37938;DHT22;23763;48.130;11.602;2023-05-10T08:16:20;23.70;99.90
37938;DHT22;23763;48.130;11.602;2023-05-10T08:18:47;23.90;99.90
37938;DHT22;23763;48.130;11.602;2023-05-10T08:21:13;23.00;99.90
37938;DHT22;23763;48.130;11.602;2023-05-10T08:23:39;21.80;99.90
37938;DHT22;23763;48.130;11.602;2023-05-10T08:26:05;20.90;99.90
37938;DHT22;23763;48.130;11.602;2023-05-10T08:28:31;20.60;99.90
37938;DHT22;23763;48.130;11.602;2023-05-10T08:30:56;20.70;99.90
37938;DHT22;23763;48.130;11.602;2023-05-10T08:33:22;20.30;99.90
37938;DHT22;23763;48.130;11.602;2023-05-10T08:35:47;20.00;99.90
37938;DHT22;23763;48.130;11.602;2023-05-10T08:38:13;19.60;99.90
37938;DHT22;23763;48.130;11.602;2023-05-10T08:40:43;19.30;99.90
37938;DHT22;23763;48.130;11.602;2023-05-10T08:43:11;18.80;99.90
37938;DHT22;23763;48.130;11.602;2023-05-10T08:45:44;18.10;99.90
37938;DHT22;23763;48.130;11.602;2023-05-10T08:48:14;17.60;99.90
37938;DHT22;23763;48.130;11.602;2023-05-10T08:50:41;17.20;99.90
37938;DHT22;23763;48.130;11.602;2023-05-10T08:53:11;16.90;99.90
37938;DHT22;23763;48.130;11.602;2023-05-10T08:55:38;16.70;99.90
37938;DHT22;23763;48.130;11.602;2023-05-10T08:58:05;16.60;99.90
37938;DHT22;23763;48.130;11.602;2023-05-10T09:00:31;16.60;99.90
37938;DHT22;23763;48.130;11.602;2023-05-10T09:03:02;16.90;99.90
37938;DHT22;23763;48.130;11.602;2023-05-10T09:05:28;16.90;99.90
37938;DHT22;23763;48.130;11.602;2023-05-10T09:07:54;16.70;99.90
37938;DHT22;23763;48.130;11.602;2023-05-10T09:10:20;16.60;99.90
37938;DHT22;23763;48.130;11.602;2023-05-10T09:12:48;16.50;99.90
37938;DHT22;23763;48.130;11.602;2023-05-10T09:15:15;16.40;99.90
37938;DHT22;23763;48.130;11.602;2023-05-10T09:17:42;16.60;99.90
37938;DHT22;23763;48.130;11.602;2023-05-10T09:20:09;16.80;99.90
37938;DHT22;23763;48.130;11.602;2023-05-10T09:22:35;17.60;99.90
37938;DHT22;23763;48.130;11.602;2023-05-10T09:27:34;19.00;99.90
37938;DHT22;23763;48.130;11.602;2023-05-10T09:29:59;19.70;99.90
37938;DHT22;23763;48.130;11.602;2023-05-10T09:32:45;19.70;99.90
37938;DHT22;23763;48.130;11.602;2023-05-10T09:35:17;19.00;99.90
37938;DHT22;23763;48.130;11.602;2023-05-10T09:37:45;18.60;99.90
37938;DHT22;23763;48.130;11.602;2023-05-10T09:40:27;18.20;99.90
37938;DHT22;23763;48.130;11.602;2023-05-10T09:43:06;18.00;99.90
37938;DHT22;23763;48.130;11.602;2023-05-10T09:45:33;17.90;99.90
37938;DHT22;23763;48.130;11.602;2023-05-10T09:48:00;17.90;99.90
37938;DHT22;23763;48.130;11.602;2023-05-10T09:50:27;18.10;99.90
37938;DHT22;23763;48.130;11.602;2023-05-10T09:53:01;18.40;99.90
37938;DHT22;23763;48.130;11.602;2023-05-10T09:55:38;18.60;99.90
37938;DHT22;23763;48.130;11.602;2023-05-10T09:58:04;18.60;99.90
37938;DHT22;23763;48.130;11.602;2023-05-10T10:00:36;18.70;99.90
37938;DHT22;23763;48.130;11.602;2023-05-10T10:03:03;18.90;99.90
37938;DHT22;23763;48.130;11.602;2023-05-10T10:05:29;19.00;99.90
37938;DHT22;23763;48.130;11.602;2023-05-10T10:07:57;19.30;99.90
37938;DHT22;23763;48.130;11.602;2023-05-10T10:10:24;19.40;99.90
37938;DHT22;23763;48.130;11.602;2023-05-10T10:12:51;19.30;99.90
37938;DHT22;23763;48.130;11.602;2023-05-10T10:15:16;19.10;99.90
37938;DHT22;23763;48.130;11.602;2023-05-10T10:17:43;18.90;99.90
37938;DHT22;23763;48.130;11.602;2023-05-10T10:20:09;18.70;99.90
37938;DHT22;23763;48.130;11.602;2023-05-10T10:22:36;18.60;99.90
37938;DHT22;23763;48.130;11.602;2023-05-10T10:25:04;19.00;99.90
37938;DHT22;23763;48.130;11.602;2023-05-10T10:35:58;18.40;99.90
37938;DHT22;23763;48.130;11.602;2023-05-10T10:38:24;18.10;99.90
37938;DHT22;23763;48.130;11.602;2023-05-10T10:41:02;17.80;99.90
37938;DHT22;23763;48.130;11.602;2023-05-10T10:43:28;17.70;99.90
37938;DHT22;23763;48.130;11.602;2023-05-10T10:46:15;18.00;99.90
37938;DHT22;23763;48.130;11.602;2023-05-10T10:48:47;18.60;99.90
37938;DHT22;23763;48.130;11.602;2023-05-10T10:51:13;19.10;99.90
37938;DHT22;23763;48.130;11.602;2023-05-10T10:53:40;19.50;99.90
37938;DHT22;23763;48.130;11.602;2023-05-10T10:56:09;19.70;99.90
37938;DHT22;23763;48.130;11.602;2023-05-10T10:58:36;20.00;99.90
37938;DHT22;23763;48.130;11.602;2023-05-10T11:01:14;19.80;99.90
37938;DHT22;23763;48.130;11.602;2023-05-10T11:03:40;19.30;99.90
37938;DHT22;23763;48.130;11.602;2023-05-10T11:06:07;19.10;99.90
37938;DHT22;23763;48.130;11.602;2023-05-10T11:08:41;18.70;99.90
37938;DHT22;23763;48.130;11.602;2023-05-10T11:11:08;18.30;99.90
37938;DHT22;23763;48.130;11.602;2023-05-10T11:13:45;17.80;99.90
37938;DHT22;23763;48.130;11.602;2023-05-10T11:16:24;17.30;99.90
37938;DHT22;23763;48.130;11.602;2023-05-10T11:21:22;16.90;99.90
37938;DHT22;23763;48.130;11.602;2023-05-10T11:23:54;16.90;99.90
37938;DHT22;23763;48.130;11.602;2023-05-10T11:26:35;16.90;99.90
37938;DHT22;23763;48.130;11.602;2023-05-10T11:29:02;16.70;99.90
37938;DHT22;23763;48.130;11.602;2023-05-10T11:31:29;16.40;99.90
37938;DHT22;23763;48.130;11.602;2023-05-10T11:33:57;16.30;99.90
37938;DHT22;23763;48.130;11.602;2023-05-10T11:36:24;16.20;99.90
37938;DHT22;23763;48.130;11.602;2023-05-10T11:38:51;16.20;99.90
37938;DHT22;23763;48.130;11.602;2023-05-10T11:41:18;16.30;99.90
37938;DHT22;23763;48.130;11.602;2023-05-10T11:43:49;16.20;99.90
37938;DHT22;23763;48.130;11.602;2023-05-10T11:46:15;15.80;99.90
37938;DHT22;23763;48.130;11.602;2023-05-10T11:48:42;15.60;99.90
37938;DHT22;23763;48.130;11.602;2023-05-10T11:51:08;15.40;99.90
37938;DHT22;23763;48.130;11.602;2023-05-10T11:53:34;15.40;99.90
37938;DHT22;23763;48.130;11.602;2023-05-10T11:56:06;15.20;99.90
37938;DHT22;23763;48.130;11.602;2023-05-10T11:58:32;15.00;99.90
37938;DHT22;23763;48.130;11.602;2023-05-10T12:01:02;15.00;99.90
37938;DHT22;23763;48.130;11.602;2023-05-10T12:03:29;15.00;99.90
37938;DHT22;23763;48.130;11.602;2023-05-10T12:05:58;15.00;99.90
37938;DHT22;23763;48.130;11.602;2023-05-10T12:08:28;14.80;99.90
37938;DHT22;23763;48.130;11.602;2023-05-10T12:11:05;14.80;99.90
37938;DHT22;23763;48.130;11.602;2023-05-10T12:13:31;14.60;99.90
37938;DHT22;23763;48.130;11.602;2023-05-10T12:16:01;14.60;99.90
37938;DHT22;23763;48.130;11.602;2023-05-10T12:18:40;14.60;99.90
37938;DHT22;23763;48.130;11.602;2023-05-10T12:21:06;14.60;99.90
37938;DHT22;23763;48.130;11.602;2023-05-10T12:23:31;14.50;99.90
37938;DHT22;23763;48.130;11.602;2023-05-10T12:26:09;14.50;99.90
37938;DHT22;23763;48.130;11.602;2023-05-10T12:28:35;14.30;99.90
37938;DHT22;23763;48.130;11.602;2023-05-10T12:31:01;14.20;99.90
37938;DHT22;23763;48.130;11.602;2023-05-10T12:33:27;14.20;99.90
37938;DHT22;23763;48.130;11.602;2023-05-10T12:36:00;14.10;99.90
37938;DHT22;23763;48.130;11.602;2023-05-10T12:38:39;14.10;99.90
37938;DHT22;23763;48.130;11.602;2023-05-10T12:41:06;14.10;99.90
37938;DHT22;23763;48.130;11.602;2023-05-10T12:43:33;14.10;99.90
37938;DHT22;23763;48.130;11.602;2023-05-10T12:46:11;14.20;99.90
37938;DHT22;23763;48.130;11.602;2023-05-10T12:48:37;14.30;99.90
37938;DHT22;23763;48.130;11.602;2023-05-10T12:51:04;14.30;99.90
37938;DHT22;23763;48.130;11.602;2023-05-10T12:53:30;14.30;99.90
37938;DHT22;23763;48.130;11.602;2023-05-10T12:55:56;14.20;99.90
37938;DHT22;23763;48.130;11.602;2023-05-10T12:58:22;14.20;99.90
37938;DHT22;23763;48.130;11.602;2023-05-10T13:00:48;14.20;99.90
37938;DHT22;23763;48.130;11.602;2023-05-10T13:03:13;14.30;99.90
37938;DHT22;23763;48.130;11.602;2023-05-10T13:05:41;14.30;99.90
37938;DHT22;23763;48.130;11.602;2023-05-10T13:08:06;14.20;99.90
37938;DHT22;23763;48.130;11.602;2023-05-10T13:10:32;14.20;99.90
37938;DHT22;23763;48.130;11.602;2023-05-10T13:12:58;14.20;99.90
37938;DHT22;23763;48.130;11.602;2023-05-10T13:15:25;14.10;99.90
37938;DHT22;23763;48.130;11.602;2023-05-10T13:17:51;14.20;99.90
37938;DHT22;23763;48.130;11.602;2023-05-10T13:20:16;14.30;99.90
37938;DHT22;23763;48.130;11.602;2023-05-10T13:22:45;14.40;99.90
37938;DHT22;23763;48.130;11.602;2023-05-10T13:25:11;14.40;99.90
37938;DHT22;23763;48.130;11.602;2023-05-10T13:27:40;14.30;99.90
37938;DHT22;23763;48.130;11.602;2023-05-10T13:30:07;14.30;99.90
37938;DHT22;23763;48.130;11.602;2023-05-10T13:32:33;14.30;99.90
37938;DHT22;23763;48.130;11.602;2023-05-10T13:34:59;14.30;99.90
37938;DHT22;23763;48.130;11.602;2023-05-10T13:37:24;14.20;99.90
37938;DHT22;23763;48.130;11.602;2023-05-10T13:39:50;14.30;99.90
37938;DHT22;23763;48.130;11.602;2023-05-10T13:42:16;14.50;99.90
37938;DHT22;23763;48.130;11.602;2023-05-10T13:44:42;14.60;99.90
37938;DHT22;23763;48.130;11.602;2023-05-10T13:47:08;14.50;99.90
37938;DHT22;23763;48.130;11.602;2023-05-10T13:49:33;14.60;99.90
37938;DHT22;23763;48.130;11.602;2023-05-10T13:52:00;14.60;99.90
37938;DHT22;23763;48.130;11.602;2023-05-10T13:54:32;14.60;99.90
37938;DHT22;23763;48.130;11.602;2023-05-10T13:56:58;14.60;99.90
37938;DHT22;23763;48.130;11.602;2023-05-10T13:59:24;14.60;99.90
37938;DHT22;23763;48.130;11.602;2023-05-10T14:01:50;14.50;99.90
37938;DHT22;23763;48.130;11.602;2023-05-10T14:04:16;14.50;99.90
37938;DHT22;23763;48.130;11.602;2023-05-10T14:06:42;14.40;99.90
37938;DHT22;23763;48.130;11.602;2023-05-10T14:09:08;14.50;99.90
37938;DHT22;23763;48.130;11.602;2023-05-10T14:11:34;14.50;99.90
37938;DHT22;23763;48.130;11.602;2023-05-10T14:13:59;14.50;99.90
37938;DHT22;23763;48.130;11.602;2023-05-10T14:16:25;14.50;99.90
37938;DHT22;23763;48.130;11.602;2023-05-10T14:18:51;14.50;99.90
37938;DHT22;23763;48.130;11.602;2023-05-10T14:21:17;14.50;99.90
37938;DHT22;23763;48.130;11.602;2023-05-10T14:23:42;14.40;99.90
37938;DHT22;23763;48.130;11.602;2023-05-10T14:26:08;14.40;99.90
37938;DHT22;23763;48.130;11.602;2023-05-10T14:28:34;14.50;99.90
37938;DHT22;23763;48.130;11.602;2023-05-10T14:30:59;14.50;99.90
37938;DHT22;23763;48.130;11.602;2023-05-10T14:33:25;14.50;99.90
37938;DHT22;23763;48.130;11.602;2023-05-10T14:35:51;14.50;99.90
37938;DHT22;23763;48.130;11.602;2023-05-10T14:38:16;14.50;99.90
37938;DHT22;23763;48.130;11.602;2023-05-10T14:40:42;14.40;99.90
37938;DHT22;23763;48.130;11.602;2023-05-10T14:43:08;14.50;99.90
37938;DHT22;23763;48.130;11.602;2023-05-10T14:45:34;14.50;99.90
37938;DHT22;23763;48.130;11.602;2023-05-10T14:48:00;14.40;99.90
37938;DHT22;23763;48.130;11.602;2023-05-10T14:50:26;14.40;99.90
37938;DHT22;23763;48.130;11.602;2023-05-10T14:52:54;14.30;99.90
37938;DHT22;23763;48.130;11.602;2023-05-10T14:55:20;14.40;99.90
37938;DHT22;23763;48.130;11.602;2023-05-10T14:57:46;14.40;99.90
37938;DHT22;23763;48.130;11.602;2023-05-10T15:00:13;14.30;99.90
37938;DHT22;23763;48.130;11.602;2023-05-10T15:02:40;14.30;99.90
37938;DHT22;23763;48.130;11.602;2023-05-10T15:05:06;14.30;99.90
37938;DHT22;23763;48.130;11.602;2023-05-10T15:07:32;14.30;99.90
37938;DHT22;23763;48.130;11.602;2023-05-10T15:09:58;14.20;99.90
37938;DHT22;23763;48.130;11.602;2023-05-10T15:12:23;14.10;99.90
37938;DHT22;23763;48.130;11.602;2023-05-10T15:14:49;14.10;99.90
37938;DHT22;23763;48.130;11.602;2023-05-10T15:17:14;14.00;99.90
37938;DHT22;23763;48.130;11.602;2023-05-10T15:19:41;14.00;99.90
37938;DHT22;23763;48.130;11.602;2023-05-10T15:22:08;14.00;99.90
37938;DHT22;23763;48.130;11.602;2023-05-10T15:24:33;14.00;99.90
37938;DHT22;23763;48.130;11.602;2023-05-10T15:26:59;14.00;99.90
37938;DHT22;23763;48.130;11.602;2023-05-10T15:29:26;14.00;99.90
37938;DHT22;23763;48.130;11.602;2023-05-10T15:31:51;14.00;99.90
37938;DHT22;23763;48.130;11.602;2023-05-10T15:34:17;14.00;99.90
37938;DHT22;23763;48.130;11.602;2023-05-10T15:36:44;13.90;99.90
37938;DHT22;23763;48.130;11.602;2023-05-10T15:39:10;13.90;99.90
37938;DHT22;23763;48.130;11.602;2023-05-10T15:41:35;13.80;99.90
37938;DHT22;23763;48.130;11.602;2023-05-10T15:44:01;13.70;99.90
37938;DHT22;23763;48.130;11.602;2023-05-10T15:46:28;13.70;99.90
37938;DHT22;23763;48.130;11.602;2023-05-10T15:48:54;13.80;99.90
37938;DHT22;23763;48.130;11.602;2023-05-10T15:51:20;13.80;99.90
37938;DHT22;23763;48.130;11.602;2023-05-10T15:53:46;13.70;99.90